sensor_id;sensor_type;location;lat;lon;timestamp;pressure;altitude;pressure_sealevel;temperature;humidity
75359;BME280;64046;51.978;5.934;2022-11-20T00:01:51;101270.66;;;4.50;57.31
75359;BME280;64046;51.978;5.934;2022-11-20T00:04:20;101266.28;;;4.54;57.17
75359;BME280;64046;51.978;5.934;2022-11-20T00:06:49;101261.13;;;4.52;57.28
75359;BME280;64046;51.978;5.934;2022-11-20T00:09:21;101269.47;;;4.74;57.48
75359;BME280;64046;51.978;5.934;2022-11-20T00:11:50;101266.19;;;4.60;57.20
75359;BME280;64046;51.978;5.934;2022-11-20T00:14:19;101264.47;;;4.60;57.47
75359;BME280;64046;51.978;5.934;2022-11-20T00:16:49;101254.97;;;4.59;57.51
75359;BME280;64046;51.978;5.934;2022-11-20T00:19:18;101255.81;;;4.60;57.47
75359;BME280;64046;51.978;5.934;2022-11-20T00:21:47;101255.88;;;4.55;57.67
75359;BME280;64046;51.978;5.934;2022-11-20T00:24:17;101245.53;;;4.52;57.59
75359;BME280;64046;51.978;5.934;2022-11-20T00:26:49;101245.38;;;4.66;57.83
75359;BME280;64046;51.978;5.934;2022-11-20T00:29:18;101236.09;;;4.46;57.88
75359;BME280;64046;51.978;5.934;2022-11-20T00:31:47;101240.44;;;4.46;58.25
75359;BME280;64046;51.978;5.934;2022-11-20T00:34:16;101230.91;;;4.46;58.19
75359;BME280;64046;51.978;5.934;2022-11-20T00:36:45;101238.72;;;4.45;58.28
75359;BME280;64046;51.978;5.934;2022-11-20T00:39:14;101236.25;;;4.36;58.54
75359;BME280;64046;51.978;5.934;2022-11-20T00:41:43;101237.19;;;4.25;59.07
75359;BME280;64046;51.978;5.934;2022-11-20T00:44:15;101239.56;;;4.44;58.85
75359;BME280;64046;51.978;5.934;2022-11-20T00:46:44;101244.13;;;4.26;59.13
75359;BME280;64046;51.978;5.934;2022-11-20T00:49:13;101243.25;;;4.27;59.15
75359;BME280;64046;51.978;5.934;2022-11-20T00:51:49;101244.06;;;4.29;59.00
75359;BME280;64046;51.978;5.934;2022-11-20T00:54:18;101236.38;;;4.22;59.04
75359;BME280;64046;51.978;5.934;2022-11-20T00:56:47;101241.66;;;4.14;59.60
75359;BME280;64046;51.978;5.934;2022-11-20T00:59:19;101228.50;;;4.31;59.41
75359;BME280;64046;51.978;5.934;2022-11-20T01:01:48;101229.75;;;3.96;60.02
75359;BME280;64046;51.978;5.934;2022-11-20T01:04:18;101235.03;;;3.84;61.00
75359;BME280;64046;51.978;5.934;2022-11-20T01:06:47;101240.28;;;3.77;61.09
75359;BME280;64046;51.978;5.934;2022-11-20T01:09:16;101241.09;;;3.81;60.98
75359;BME280;64046;51.978;5.934;2022-11-20T01:11:45;101241.97;;;3.83;60.91
75359;BME280;64046;51.978;5.934;2022-11-20T01:14:16;101242.63;;;4.02;60.88
75359;BME280;64046;51.978;5.934;2022-11-20T01:16:50;101234.78;;;4.11;60.53
75359;BME280;64046;51.978;5.934;2022-11-20T01:19:21;101227.88;;;4.09;60.39
75359;BME280;64046;51.978;5.934;2022-11-20T01:21:52;101228.72;;;4.09;60.46
75359;BME280;64046;51.978;5.934;2022-11-20T01:24:22;101224.56;;;3.96;60.58
75359;BME280;64046;51.978;5.934;2022-11-20T01:26:51;101217.63;;;3.98;60.61
75359;BME280;64046;51.978;5.934;2022-11-20T01:29:22;101214.88;;;4.12;60.64
75359;BME280;64046;51.978;5.934;2022-11-20T01:31:54;101207.94;;;4.15;60.73
75359;BME280;64046;51.978;5.934;2022-11-20T01:34:23;101209.84;;;3.98;60.80
75359;BME280;64046;51.978;5.934;2022-11-20T01:36:53;101225.38;;;3.99;60.76
75359;BME280;64046;51.978;5.934;2022-11-20T01:39:24;101214.09;;;4.04;60.68
75359;BME280;64046;51.978;5.934;2022-11-20T01:41:55;101206.38;;;3.99;60.88
75359;BME280;64046;51.978;5.934;2022-11-20T01:44:47;101202.75;;;4.14;60.46
75359;BME280;64046;51.978;5.934;2022-11-20T01:47:22;101197.63;;;4.09;60.56
75359;BME280;64046;51.978;5.934;2022-11-20T01:49:56;101203.66;;;4.08;60.54
75359;BME280;64046;51.978;5.934;2022-11-20T01:52:30;101209.75;;;4.07;60.64
75359;BME280;64046;51.978;5.934;2022-11-20T01:55:05;101206.28;;;4.07;60.45
75359;BME280;64046;51.978;5.934;2022-11-20T01:57:36;101207.31;;;3.92;60.52
75359;BME280;64046;51.978;5.934;2022-11-20T02:00:09;101203.72;;;4.05;60.64
75359;BME280;64046;51.978;5.934;2022-11-20T02:02:46;101196.72;;;4.12;60.21
75359;BME280;64046;51.978;5.934;2022-11-20T02:05:21;101195.88;;;4.11;60.26
75359;BME280;64046;51.978;5.934;2022-11-20T02:07:52;101206.28;;;4.07;60.16
75359;BME280;64046;51.978;5.934;2022-11-20T02:10:23;101208.06;;;4.03;60.17
75359;BME280;64046;51.978;5.934;2022-11-20T02:12:53;101209.78;;;4.04;60.16
75359;BME280;64046;51.978;5.934;2022-11-20T02:15:34;101200.38;;;3.97;60.00
75359;BME280;64046;51.978;5.934;2022-11-20T02:18:07;101203.59;;;4.16;59.85
75359;BME280;64046;51.978;5.934;2022-11-20T02:20:36;101201.19;;;3.99;59.92
75359;BME280;64046;51.978;5.934;2022-11-20T02:23:11;101198.34;;;4.21;59.69
75359;BME280;64046;51.978;5.934;2022-11-20T02:25:45;101206.13;;;4.21;59.77
75359;BME280;64046;51.978;5.934;2022-11-20T02:28:16;101195.03;;;4.09;59.82
75359;BME280;64046;51.978;5.934;2022-11-20T02:30:46;101191.66;;;4.01;59.80
75359;BME280;64046;51.978;5.934;2022-11-20T02:33:15;101194.25;;;3.99;59.82
75359;BME280;64046;51.978;5.934;2022-11-20T02:35:45;101196.81;;;4.06;60.17
75359;BME280;64046;51.978;5.934;2022-11-20T02:38:15;101191.69;;;3.98;60.28
75359;BME280;64046;51.978;5.934;2022-11-20T02:40:46;101198.44;;;4.13;60.52
75359;BME280;64046;51.978;5.934;2022-11-20T02:43:16;101193.50;;;3.93;60.57
75359;BME280;64046;51.978;5.934;2022-11-20T02:45:45;101192.66;;;3.88;60.69
75359;BME280;64046;51.978;5.934;2022-11-20T02:48:14;101186.66;;;3.84;60.92
75359;BME280;64046;51.978;5.934;2022-11-20T02:50:43;101178.91;;;3.79;60.88
75359;BME280;64046;51.978;5.934;2022-11-20T02:53:12;101183.22;;;3.80;60.99
75359;BME280;64046;51.978;5.934;2022-11-20T02:55:41;101175.47;;;3.79;61.11
75359;BME280;64046;51.978;5.934;2022-11-20T02:58:13;101179.66;;;3.92;61.00
75359;BME280;64046;51.978;5.934;2022-11-20T03:00:42;101181.50;;;3.79;61.24
75359;BME280;64046;51.978;5.934;2022-11-20T03:03:11;101180.63;;;3.80;61.06
75359;BME280;64046;51.978;5.934;2022-11-20T03:05:40;101181.50;;;3.79;61.08
75359;BME280;64046;51.978;5.934;2022-11-20T03:08:09;101175.50;;;3.77;61.08
75359;BME280;64046;51.978;5.934;2022-11-20T03:10:38;101172.06;;;3.77;61.19
75359;BME280;64046;51.978;5.934;2022-11-20T03:13:07;101175.50;;;3.76;61.38
75359;BME280;64046;51.978;5.934;2022-11-20T03:15:39;101172.78;;;3.88;61.38
75359;BME280;64046;51.978;5.934;2022-11-20T03:18:08;101169.56;;;3.66;61.66
75359;BME280;64046;51.978;5.934;2022-11-20T03:20:39;101161.75;;;3.68;61.87
75359;BME280;64046;51.978;5.934;2022-11-20T03:23:08;101148.88;;;3.63;62.10
75359;BME280;64046;51.978;5.934;2022-11-20T03:25:37;101150.63;;;3.62;62.09
75359;BME280;64046;51.978;5.934;2022-11-20T03:28:06;101148.03;;;3.58;62.16
75359;BME280;64046;51.978;5.934;2022-11-20T03:30:36;101155.84;;;3.56;62.38
75359;BME280;64046;51.978;5.934;2022-11-20T03:33:07;101144.47;;;3.71;62.43
75359;BME280;64046;51.978;5.934;2022-11-20T03:35:36;101142.06;;;3.53;62.58
75359;BME280;64046;51.978;5.934;2022-11-20T03:38:05;101142.06;;;3.53;62.52
75359;BME280;64046;51.978;5.934;2022-11-20T03:40:35;101140.34;;;3.52;62.51
75359;BME280;64046;51.978;5.934;2022-11-20T03:43:04;101146.41;;;3.49;62.69
75359;BME280;64046;51.978;5.934;2022-11-20T03:45:33;101148.97;;;3.51;62.73
75359;BME280;64046;51.978;5.934;2022-11-20T03:48:02;101154.19;;;3.49;63.18
75359;BME280;64046;51.978;5.934;2022-11-20T03:50:34;101153.19;;;3.62;63.32
75359;BME280;64046;51.978;5.934;2022-11-20T03:53:03;101155.06;;;3.46;63.36
75359;BME280;64046;51.978;5.934;2022-11-20T03:55:32;101145.56;;;3.47;63.37
75359;BME280;64046;51.978;5.934;2022-11-20T03:58:01;101149.00;;;3.47;63.52
75359;BME280;64046;51.978;5.934;2022-11-20T04:00:30;101135.22;;;3.42;63.51
75359;BME280;64046;51.978;5.934;2022-11-20T04:03:00;101138.66;;;3.46;63.55
75359;BME280;64046;51.978;5.934;2022-11-20T04:05:35;101148.09;;;3.53;63.41
75359;BME280;64046;51.978;5.934;2022-11-20T04:08:05;101148.19;;;3.42;63.49
75359;BME280;64046;51.978;5.934;2022-11-20T04:10:34;101143.97;;;3.31;63.44
75359;BME280;64046;51.978;5.934;2022-11-20T04:13:03;101138.81;;;3.29;63.70
75359;BME280;64046;51.978;5.934;2022-11-20T04:15:32;101139.69;;;3.29;63.69
75359;BME280;64046;51.978;5.934;2022-11-20T04:18:01;101138.72;;;3.41;63.33
75359;BME280;64046;51.978;5.934;2022-11-20T04:20:30;101143.00;;;3.44;63.15
75359;BME280;64046;51.978;5.934;2022-11-20T04:23:02;101130.72;;;3.64;62.78
75359;BME280;64046;51.978;5.934;2022-11-20T04:25:31;101123.97;;;3.46;62.72
75359;BME280;64046;51.978;5.934;2022-11-20T04:28:00;101142.13;;;3.45;62.66
75359;BME280;64046;51.978;5.934;2022-11-20T04:30:30;101141.34;;;3.34;63.71
75359;BME280;64046;51.978;5.934;2022-11-20T04:32:59;101138.00;;;3.21;63.71
75359;BME280;64046;51.978;5.934;2022-11-20T04:35:29;101129.31;;;3.33;63.71
75359;BME280;64046;51.978;5.934;2022-11-20T04:37:58;101129.25;;;3.37;63.42
75359;BME280;64046;51.978;5.934;2022-11-20T04:40:30;101128.22;;;3.54;63.18
75359;BME280;64046;51.978;5.934;2022-11-20T04:43:06;101126.72;;;3.31;63.49
75359;BME280;64046;51.978;5.934;2022-11-20T04:45:35;101125.84;;;3.31;63.72
75359;BME280;64046;51.978;5.934;2022-11-20T04:48:05;101118.00;;;3.40;63.65
75359;BME280;64046;51.978;5.934;2022-11-20T04:50:34;101128.38;;;3.40;63.42
75359;BME280;64046;51.978;5.934;2022-11-20T04:53:03;101134.44;;;3.37;63.48
75359;BME280;64046;51.978;5.934;2022-11-20T04:55:35;101128.19;;;3.58;63.17
75359;BME280;64046;51.978;5.934;2022-11-20T04:58:04;101123.16;;;3.43;63.22
75359;BME280;64046;51.978;5.934;2022-11-20T05:00:33;101122.28;;;3.41;63.13
75359;BME280;64046;51.978;5.934;2022-11-20T05:03:02;101119.69;;;3.42;63.31
75359;BME280;64046;51.978;5.934;2022-11-20T05:05:32;101113.69;;;3.39;63.38
75359;BME280;64046;51.978;5.934;2022-11-20T05:08:02;101112.84;;;3.38;63.50
75359;BME280;64046;51.978;5.934;2022-11-20T05:10:31;101107.69;;;3.32;63.53
75359;BME280;64046;51.978;5.934;2022-11-20T05:13:03;101105.84;;;3.46;63.60
75359;BME280;64046;51.978;5.934;2022-11-20T05:15:32;101103.50;;;3.22;63.71
75359;BME280;64046;51.978;5.934;2022-11-20T05:18:01;101106.09;;;3.20;64.17
75359;BME280;64046;51.978;5.934;2022-11-20T05:20:30;101106.06;;;3.22;63.99
75359;BME280;64046;51.978;5.934;2022-11-20T05:22:59;101096.63;;;3.16;64.19
75359;BME280;64046;51.978;5.934;2022-11-20T05:25:28;101089.81;;;3.06;64.75
75359;BME280;64046;51.978;5.934;2022-11-20T05:27:57;101095.91;;;3.02;64.97
75359;BME280;64046;51.978;5.934;2022-11-20T05:30:29;101088.88;;;3.16;65.08
75359;BME280;64046;51.978;5.934;2022-11-20T05:32:58;101088.13;;;3.02;65.08
75359;BME280;64046;51.978;5.934;2022-11-20T05:35:27;101086.41;;;3.04;65.01
75359;BME280;64046;51.978;5.934;2022-11-20T05:37:56;101102.81;;;3.03;64.94
75359;BME280;64046;51.978;5.934;2022-11-20T05:40:25;101098.50;;;3.02;64.91
75359;BME280;64046;51.978;5.934;2022-11-20T05:42:55;101101.09;;;3.02;64.95
75359;BME280;64046;51.978;5.934;2022-11-20T05:45:24;101093.31;;;3.02;64.84
75359;BME280;64046;51.978;5.934;2022-11-20T05:47:57;101087.06;;;3.24;64.58
75359;BME280;64046;51.978;5.934;2022-11-20T05:50:27;101087.28;;;3.03;64.67
75359;BME280;64046;51.978;5.934;2022-11-20T05:52:57;101085.47;;;3.08;64.62
75359;BME280;64046;51.978;5.934;2022-11-20T05:55:27;101095.16;;;2.89;64.99
75359;BME280;64046;51.978;5.934;2022-11-20T05:57:56;101089.94;;;2.90;64.87
75359;BME280;64046;51.978;5.934;2022-11-20T06:00:25;101095.13;;;2.90;65.08
75359;BME280;64046;51.978;5.934;2022-11-20T06:02:56;101088.94;;;3.08;64.84
75359;BME280;64046;51.978;5.934;2022-11-20T06:05:26;101093.41;;;2.91;64.94
75359;BME280;64046;51.978;5.934;2022-11-20T06:07:55;101090.81;;;2.92;65.07
75359;BME280;64046;51.978;5.934;2022-11-20T06:10:24;101098.59;;;2.91;64.94
75359;BME280;64046;51.978;5.934;2022-11-20T06:12:53;101102.03;;;2.90;64.93
75359;BME280;64046;51.978;5.934;2022-11-20T06:15:22;101105.47;;;2.90;64.84
75359;BME280;64046;51.978;5.934;2022-11-20T06:17:52;101099.38;;;2.98;65.06
75359;BME280;64046;51.978;5.934;2022-11-20T06:20:24;101106.22;;;3.05;64.94
75359;BME280;64046;51.978;5.934;2022-11-20T06:22:53;101117.59;;;2.87;65.14
75359;BME280;64046;51.978;5.934;2022-11-20T06:25:22;101116.75;;;2.85;64.95
75359;BME280;64046;51.978;5.934;2022-11-20T06:27:51;101121.91;;;2.86;65.30
75359;BME280;64046;51.978;5.934;2022-11-20T06:30:21;101118.53;;;2.80;65.17
75359;BME280;64046;51.978;5.934;2022-11-20T06:32:50;101121.91;;;2.85;65.04
75359;BME280;64046;51.978;5.934;2022-11-20T06:35:19;101118.44;;;2.89;65.02
75359;BME280;64046;51.978;5.934;2022-11-20T06:37:50;101118.31;;;3.06;64.83
75359;BME280;64046;51.978;5.934;2022-11-20T06:40:20;101121.88;;;2.88;65.01
75359;BME280;64046;51.978;5.934;2022-11-20T06:42:49;101115.03;;;2.84;65.01
75359;BME280;64046;51.978;5.934;2022-11-20T06:45:18;101122.78;;;2.85;65.00
75359;BME280;64046;51.978;5.934;2022-11-20T06:47:47;101128.84;;;2.83;65.03
75359;BME280;64046;51.978;5.934;2022-11-20T06:50:16;101127.06;;;2.89;64.89
75359;BME280;64046;51.978;5.934;2022-11-20T06:52:45;101133.16;;;2.85;64.86
75359;BME280;64046;51.978;5.934;2022-11-20T06:55:17;101132.09;;;3.06;64.69
75359;BME280;64046;51.978;5.934;2022-11-20T06:57:46;101137.41;;;2.91;64.60
75359;BME280;64046;51.978;5.934;2022-11-20T07:00:15;101127.94;;;2.90;64.60
75359;BME280;64046;51.978;5.934;2022-11-20T07:02:45;101132.28;;;2.83;64.91
75359;BME280;64046;51.978;5.934;2022-11-20T07:05:14;101134.06;;;2.80;64.99
75359;BME280;64046;51.978;5.934;2022-11-20T07:07:43;101121.13;;;2.75;65.07
75359;BME280;64046;51.978;5.934;2022-11-20T07:10:12;101135.78;;;2.77;65.05
75359;BME280;64046;51.978;5.934;2022-11-20T07:12:49;101130.47;;;2.96;64.60
75359;BME280;64046;51.978;5.934;2022-11-20T07:15:18;101134.94;;;2.75;65.02
75359;BME280;64046;51.978;5.934;2022-11-20T07:17:48;101132.34;;;2.77;65.13
75359;BME280;64046;51.978;5.934;2022-11-20T07:20:17;101137.50;;;2.77;64.87
75359;BME280;64046;51.978;5.934;2022-11-20T07:22:46;101121.09;;;2.80;64.91
75359;BME280;64046;51.978;5.934;2022-11-20T07:25:15;101118.47;;;2.84;64.83
75359;BME280;64046;51.978;5.934;2022-11-20T07:27:47;101109.69;;;3.02;64.82
75359;BME280;64046;51.978;5.934;2022-11-20T07:30:16;101114.09;;;2.89;64.67
75359;BME280;64046;51.978;5.934;2022-11-20T07:32:46;101108.03;;;2.95;64.83
75359;BME280;64046;51.978;5.934;2022-11-20T07:35:15;101108.06;;;2.90;64.77
75359;BME280;64046;51.978;5.934;2022-11-20T07:37:45;101103.78;;;2.91;65.05
75359;BME280;64046;51.978;5.934;2022-11-20T07:40:14;101108.03;;;2.97;64.94
75359;BME280;64046;51.978;5.934;2022-11-20T07:42:50;101100.09;;;3.18;64.70
75359;BME280;64046;51.978;5.934;2022-11-20T07:45:21;101098.44;;;3.06;64.83
75359;BME280;64046;51.978;5.934;2022-11-20T07:47:50;101089.88;;;3.01;64.93
75359;BME280;64046;51.978;5.934;2022-11-20T07:50:20;101089.09;;;2.91;65.23
75359;BME280;64046;51.978;5.934;2022-11-20T07:52:49;101086.53;;;2.90;65.48
75359;BME280;64046;51.978;5.934;2022-11-20T07:55:18;101087.34;;;2.92;65.64
75359;BME280;64046;51.978;5.934;2022-11-20T07:57:56;101093.22;;;3.13;65.57
75359;BME280;64046;51.978;5.934;2022-11-20T08:00:26;101089.00;;;2.99;65.89
75359;BME280;64046;51.978;5.934;2022-11-20T08:02:55;101101.97;;;2.99;65.90
75359;BME280;64046;51.978;5.934;2022-11-20T08:05:24;101094.19;;;3.01;65.81
75359;BME280;64046;51.978;5.934;2022-11-20T08:07:53;101096.88;;;2.90;66.75
75359;BME280;64046;51.978;5.934;2022-11-20T08:10:23;101101.13;;;2.96;66.51
75359;BME280;64046;51.978;5.934;2022-11-20T08:12:52;101097.50;;;3.15;66.53
75359;BME280;64046;51.978;5.934;2022-11-20T08:15:38;101107.69;;;3.34;66.09
75359;BME280;64046;51.978;5.934;2022-11-20T08:18:08;101107.69;;;3.37;66.15
75359;BME280;64046;51.978;5.934;2022-11-20T08:20:39;101115.41;;;3.41;65.67
75359;BME280;64046;51.978;5.934;2022-11-20T08:23:08;101109.34;;;3.39;65.64
75359;BME280;64046;51.978;5.934;2022-11-20T08:25:38;101107.50;;;3.54;65.51
75359;BME280;64046;51.978;5.934;2022-11-20T08:28:08;101106.53;;;3.64;65.48
75359;BME280;64046;51.978;5.934;2022-11-20T08:30:41;101102.13;;;3.71;65.55
75359;BME280;64046;51.978;5.934;2022-11-20T08:33:10;101097.13;;;3.52;65.67
75359;BME280;64046;51.978;5.934;2022-11-20T08:35:39;101101.69;;;3.30;67.18
75359;BME280;64046;51.978;5.934;2022-11-20T08:38:09;101100.72;;;3.40;67.48
75359;BME280;64046;51.978;5.934;2022-11-20T08:40:38;101098.09;;;3.43;67.43
75359;BME280;64046;51.978;5.934;2022-11-20T08:43:27;101093.75;;;3.49;67.49
75359;BME280;64046;51.978;5.934;2022-11-20T08:46:01;101096.97;;;3.68;67.59
75359;BME280;64046;51.978;5.934;2022-11-20T08:48:30;101095.38;;;3.57;67.63
75359;BME280;64046;51.978;5.934;2022-11-20T08:50:59;101095.34;;;3.59;67.95
75359;BME280;64046;51.978;5.934;2022-11-20T08:53:28;101090.94;;;3.69;68.07
75359;BME280;64046;51.978;5.934;2022-11-20T08:55:57;101092.53;;;3.79;67.83
75359;BME280;64046;51.978;5.934;2022-11-20T08:58:27;101083.75;;;3.91;67.54
75359;BME280;64046;51.978;5.934;2022-11-20T09:00:56;101082.78;;;3.99;67.62
75359;BME280;64046;51.978;5.934;2022-11-20T09:03:28;101083.34;;;4.23;67.61
75359;BME280;64046;51.978;5.934;2022-11-20T09:05:57;101080.75;;;4.22;67.42
75359;BME280;64046;51.978;5.934;2022-11-20T09:08:28;101078.06;;;4.29;67.53
75359;BME280;64046;51.978;5.934;2022-11-20T09:10:58;101078.84;;;4.36;67.59
75359;BME280;64046;51.978;5.934;2022-11-20T09:13:28;101073.50;;;4.45;67.52
75359;BME280;64046;51.978;5.934;2022-11-20T09:15:58;101057.94;;;4.45;68.52
75359;BME280;64046;51.978;5.934;2022-11-20T09:18:31;101059.38;;;4.65;67.71
75359;BME280;64046;51.978;5.934;2022-11-20T09:21:03;101049.03;;;4.62;67.76
75359;BME280;64046;51.978;5.934;2022-11-20T09:23:34;101058.47;;;4.67;67.77
75359;BME280;64046;51.978;5.934;2022-11-20T09:26:04;101055.91;;;4.66;67.76
75359;BME280;64046;51.978;5.934;2022-11-20T09:28:34;101048.13;;;4.64;67.95
75359;BME280;64046;51.978;5.934;2022-11-20T09:31:05;101053.91;;;4.82;67.99
75359;BME280;64046;51.978;5.934;2022-11-20T09:33:37;101044.19;;;4.93;67.87
75359;BME280;64046;51.978;5.934;2022-11-20T09:36:07;101052.06;;;4.89;67.91
75359;BME280;64046;51.978;5.934;2022-11-20T09:38:36;101042.59;;;4.86;68.02
75359;BME280;64046;51.978;5.934;2022-11-20T09:41:10;101045.72;;;5.05;68.09
75359;BME280;64046;51.978;5.934;2022-11-20T09:43:51;101044.78;;;5.09;68.26
75359;BME280;64046;51.978;5.934;2022-11-20T09:46:30;101033.50;;;5.10;68.59
75359;BME280;64046;51.978;5.934;2022-11-20T09:49:22;101046.16;;;5.29;68.38
75359;BME280;64046;51.978;5.934;2022-11-20T09:51:57;101037.63;;;5.22;68.78
75359;BME280;64046;51.978;5.934;2022-11-20T09:54:29;101041.91;;;5.25;69.01
75359;BME280;64046;51.978;5.934;2022-11-20T09:57:01;101040.94;;;5.30;69.19
75359;BME280;64046;51.978;5.934;2022-11-20T09:59:35;101036.16;;;5.52;68.58
75359;BME280;64046;51.978;5.934;2022-11-20T10:02:15;101038.44;;;5.69;67.87
75359;BME280;64046;51.978;5.934;2022-11-20T10:04:52;101042.00;;;5.64;68.27
75359;BME280;64046;51.978;5.934;2022-11-20T10:07:25;101028.03;;;5.69;68.44
75359;BME280;64046;51.978;5.934;2022-11-20T10:09:58;101016.06;;;5.62;68.65
75359;BME280;64046;51.978;5.934;2022-11-20T10:12:36;101009.59;;;5.82;68.21
75359;BME280;64046;51.978;5.934;2022-11-20T10:15:29;101008.31;;;6.01;67.71
75359;BME280;64046;51.978;5.934;2022-11-20T10:18:11;101011.09;;;5.92;68.21
75359;BME280;64046;51.978;5.934;2022-11-20T10:20:54;101001.47;;;5.96;68.34
75359;BME280;64046;51.978;5.934;2022-11-20T10:23:50;101003.16;;;6.00;68.28
75359;BME280;64046;51.978;5.934;2022-11-20T10:26:26;100993.66;;;5.96;68.89
75359;BME280;64046;51.978;5.934;2022-11-20T10:29:08;100995.94;;;6.11;68.31
75359;BME280;64046;51.978;5.934;2022-11-20T10:31:39;100986.44;;;6.10;68.60
75359;BME280;64046;51.978;5.934;2022-11-20T10:34:17;100979.00;;;6.32;68.18
75359;BME280;64046;51.978;5.934;2022-11-20T10:36:54;100972.66;;;6.43;68.16
75359;BME280;64046;51.978;5.934;2022-11-20T10:39:31;100970.81;;;6.48;68.01
75359;BME280;64046;51.978;5.934;2022-11-20T10:42:02;100977.13;;;6.37;68.14
75359;BME280;64046;51.978;5.934;2022-11-20T10:44:32;100966.56;;;6.44;68.27
75359;BME280;64046;51.978;5.934;2022-11-20T10:47:16;100971.38;;;6.61;68.06
75359;BME280;64046;51.978;5.934;2022-11-20T10:49:49;100964.09;;;6.73;68.26
75359;BME280;64046;51.978;5.934;2022-11-20T10:52:26;100968.91;;;6.87;68.21
75359;BME280;64046;51.978;5.934;2022-11-20T10:55:12;100959.28;;;6.91;68.25
75359;BME280;64046;51.978;5.934;2022-11-20T10:57:51;100957.44;;;6.95;68.34
75359;BME280;64046;51.978;5.934;2022-11-20T11:00:21;100950.00;;;6.81;68.60
75359;BME280;64046;51.978;5.934;2022-11-20T11:02:52;100949.66;;;6.93;68.55
75359;BME280;64046;51.978;5.934;2022-11-20T11:05:31;100954.84;;;6.95;69.12
75359;BME280;64046;51.978;5.934;2022-11-20T11:08:07;100952.44;;;6.87;69.63
75359;BME280;64046;51.978;5.934;2022-11-20T11:10:45;100939.47;;;6.85;70.15
75359;BME280;64046;51.978;5.934;2022-11-20T11:13:21;100941.19;;;6.86;70.43
75359;BME280;64046;51.978;5.934;2022-11-20T11:15:51;100930.81;;;6.83;70.47
75359;BME280;64046;51.978;5.934;2022-11-20T11:18:24;100924.09;;;7.07;70.28
75359;BME280;64046;51.978;5.934;2022-11-20T11:20:55;100919.09;;;7.00;70.32
75359;BME280;64046;51.978;5.934;2022-11-20T11:23:31;100921.38;;;7.12;70.32
75359;BME280;64046;51.978;5.934;2022-11-20T11:26:03;100908.53;;;7.04;70.78
75359;BME280;64046;51.978;5.934;2022-11-20T11:28:34;100913.72;;;7.06;70.73
75359;BME280;64046;51.978;5.934;2022-11-20T11:31:03;100911.09;;;7.06;70.85
75359;BME280;64046;51.978;5.934;2022-11-20T11:33:32;100901.38;;;7.13;70.80
75359;BME280;64046;51.978;5.934;2022-11-20T11:36:03;100899.13;;;7.30;70.48
75359;BME280;64046;51.978;5.934;2022-11-20T11:38:38;100883.09;;;7.44;70.15
75359;BME280;64046;51.978;5.934;2022-11-20T11:41:12;100890.81;;;7.47;70.42
75359;BME280;64046;51.978;5.934;2022-11-20T11:43:52;100873.03;;;7.60;69.80
75359;BME280;64046;51.978;5.934;2022-11-20T11:46:34;100867.25;;;7.50;70.15
75359;BME280;64046;51.978;5.934;2022-11-20T11:49:16;100867.50;;;7.69;69.82
75359;BME280;64046;51.978;5.934;2022-11-20T11:51:56;100857.03;;;7.71;70.06
75359;BME280;64046;51.978;5.934;2022-11-20T11:54:35;100855.34;;;7.70;69.98
75359;BME280;64046;51.978;5.934;2022-11-20T11:57:12;100849.25;;;7.69;70.36
75359;BME280;64046;51.978;5.934;2022-11-20T11:59:54;100831.81;;;7.71;70.22
75359;BME280;64046;51.978;5.934;2022-11-20T12:02:34;100844.91;;;7.70;70.58
75359;BME280;64046;51.978;5.934;2022-11-20T12:05:14;100840.53;;;7.70;70.71
75359;BME280;64046;51.978;5.934;2022-11-20T12:07:46;100836.63;;;7.57;71.47
75359;BME280;64046;51.978;5.934;2022-11-20T12:10:28;100829.38;;;7.67;71.37
75359;BME280;64046;51.978;5.934;2022-11-20T12:13:10;100832.03;;;7.63;71.63
75359;BME280;64046;51.978;5.934;2022-11-20T12:15:45;100826.97;;;7.59;71.85
75359;BME280;64046;51.978;5.934;2022-11-20T12:18:17;100828.44;;;7.68;71.89
75359;BME280;64046;51.978;5.934;2022-11-20T12:20:55;100828.22;;;7.75;71.66
75359;BME280;64046;51.978;5.934;2022-11-20T12:23:36;100812.47;;;7.78;71.80
75359;BME280;64046;51.978;5.934;2022-11-20T12:26:18;100811.56;;;7.79;71.94
75359;BME280;64046;51.978;5.934;2022-11-20T12:29:02;100802.81;;;7.80;72.20
75359;BME280;64046;51.978;5.934;2022-11-20T12:31:52;100792.94;;;7.90;71.79
75359;BME280;64046;51.978;5.934;2022-11-20T12:34:41;100797.38;;;7.88;72.40
75359;BME280;64046;51.978;5.934;2022-11-20T12:37:21;100793.16;;;7.84;72.72
75359;BME280;64046;51.978;5.934;2022-11-20T12:39:56;100777.72;;;7.76;73.37
75359;BME280;64046;51.978;5.934;2022-11-20T12:42:43;100778.03;;;7.94;73.46
75359;BME280;64046;51.978;5.934;2022-11-20T12:45:49;100764.84;;;7.99;72.83
75359;BME280;64046;51.978;5.934;2022-11-20T12:48:41;100766.59;;;7.98;73.31
75359;BME280;64046;51.978;5.934;2022-11-20T12:51:24;100759.66;;;7.97;73.77
75359;BME280;64046;51.978;5.934;2022-11-20T12:54:05;100759.78;;;7.94;74.32
75359;BME280;64046;51.978;5.934;2022-11-20T12:56:42;100754.56;;;7.94;74.38
75359;BME280;64046;51.978;5.934;2022-11-20T12:59:27;100756.66;;;8.08;74.14
75359;BME280;64046;51.978;5.934;2022-11-20T13:02:13;100759.19;;;8.11;73.97
75359;BME280;64046;51.978;5.934;2022-11-20T13:05:03;100758.97;;;8.17;73.61
75359;BME280;64046;51.978;5.934;2022-11-20T13:07:35;100750.97;;;7.96;74.37
75359;BME280;64046;51.978;5.934;2022-11-20T13:10:05;100750.72;;;8.04;74.52
75359;BME280;64046;51.978;5.934;2022-11-20T13:12:45;100752.38;;;8.07;74.81
75359;BME280;64046;51.978;5.934;2022-11-20T13:15:32;100754.66;;;8.16;74.54
75359;BME280;64046;51.978;5.934;2022-11-20T13:18:04;100745.56;;;8.03;75.10
75359;BME280;64046;51.978;5.934;2022-11-20T13:20:41;100742.00;;;8.05;74.86
75359;BME280;64046;51.978;5.934;2022-11-20T13:23:11;100729.53;;;7.88;75.94
75359;BME280;64046;51.978;5.934;2022-11-20T13:26:02;100712.28;;;7.84;76.26
75359;BME280;64046;51.978;5.934;2022-11-20T13:28:31;100702.50;;;7.91;76.35